Sao Lourenco da Serra, Brazil
Current Conditions -  °F | °C
As of 2:00 PM on Tuesday 21 Oct 2014 (Local Time) from SBSP Reporting Station
Broken Clouds Broken Clouds  
Wind Chill: 66°   Ceiling: 3000
Heat Index: 66°   Visibility: 6mi
Dew Point: 50°   Wind: 16mph
Humidity: 56%   Direction: 150°SSE
Pressure: 30.21"   Gusts: NA
Location:  23.86°S, 46.94°W
Report Text: SBSP 211600Z 15014KT 9999 BKN030 BKN090 19/10 Q1023
Loading
Personal Weather Stations






























Interactive Weather Map
Tropical Storm Tracking
New forecast layout! Learn more

10-Day Weather Forecast

Advertisements
Track Severe Weather on mobile